createdAt,value
2022-10-06T00:00:54.014Z,99675.56
2022-10-06T00:03:23.911Z,99663.81
2022-10-06T00:05:52.568Z,99666.63
2022-10-06T00:08:20.597Z,99648.81
2022-10-06T00:10:48.514Z,99641.72
2022-10-06T00:13:16.464Z,99642.72
2022-10-06T00:15:44.410Z,99625.91
2022-10-06T00:18:12.310Z,99612.94
2022-10-06T00:20:43.384Z,99632.44
2022-10-06T00:23:11.409Z,99629.94
2022-10-06T00:25:39.351Z,99630.06
2022-10-06T00:28:07.409Z,99634.63
2022-10-06T00:30:35.318Z,99630.25
2022-10-06T00:33:04.612Z,99632.94
2022-10-06T00:35:34.381Z,99627.88
2022-10-06T00:38:04.521Z,99627.00
2022-10-06T00:40:33.203Z,99621.63
2022-10-06T00:43:02.626Z,99630.72
2022-10-06T00:45:34.982Z,99623.47
2022-10-06T00:48:10.640Z,99622.66
2022-10-06T00:50:39.320Z,99617.41
2022-10-06T00:53:09.073Z,99591.50
2022-10-06T00:55:37.057Z,99615.75
2022-10-06T00:58:06.044Z,99601.59
2022-10-06T01:00:34.930Z,99592.13
2022-10-06T01:03:08.148Z,99624.13
2022-10-06T01:05:43.489Z,99618.75
2022-10-06T01:08:12.833Z,99619.75
2022-10-06T01:10:40.724Z,99614.53
2022-10-06T01:13:10.501Z,99618.88
2022-10-06T01:15:45.717Z,99619.75
2022-10-06T01:18:16.191Z,99599.41
2022-10-06T01:20:51.618Z,99603.78
2022-10-06T01:23:21.660Z,99603.78
2022-10-06T01:25:50.135Z,99603.91
2022-10-06T01:28:18.178Z,99594.50
2022-10-06T01:30:52.590Z,99594.88
2022-10-06T01:33:22.738Z,99581.59
2022-10-06T01:35:53.427Z,99576.22
2022-10-06T01:38:22.948Z,99577.06
2022-10-06T01:40:55.470Z,99570.31
2022-10-06T01:43:23.361Z,99563.78
2022-10-06T01:45:56.363Z,99554.72
2022-10-06T01:48:25.055Z,99548.66
2022-10-06T01:50:54.266Z,99554.03
2022-10-06T01:53:24.005Z,99546.28
2022-10-06T01:55:51.980Z,99556.03
2022-10-06T01:58:25.075Z,99554.34
2022-10-06T02:00:53.250Z,99558.88
2022-10-06T02:03:21.249Z,99552.66
2022-10-06T02:05:49.217Z,99548.28
2022-10-06T02:08:17.113Z,99549.31
2022-10-06T02:10:46.436Z,99552.81
2022-10-06T02:13:21.441Z,99544.91
2022-10-06T02:15:49.506Z,99543.94
2022-10-06T02:18:17.489Z,99547.59
2022-10-06T02:20:45.371Z,99552.97
2022-10-06T02:23:14.313Z,99544.25
2022-10-06T02:25:42.185Z,99546.06
2022-10-06T02:28:11.532Z,99536.31
2022-10-06T02:30:39.683Z,99544.53
2022-10-06T02:33:07.723Z,99523.91
2022-10-06T02:35:35.572Z,99531.13
2022-10-06T02:38:03.605Z,99531.44
2022-10-06T02:40:31.638Z,99533.13
2022-10-06T02:42:59.710Z,99528.59
2022-10-06T02:45:31.096Z,99519.53
2022-10-06T02:47:59.054Z,99533.25
2022-10-06T02:50:28.113Z,99522.50
2022-10-06T02:52:57.044Z,99521.66
2022-10-06T02:55:24.954Z,99519.84
2022-10-06T02:57:55.461Z,99520.13
2022-10-06T03:00:23.584Z,99528.91
2022-10-06T03:02:53.928Z,99526.06
2022-10-06T03:05:22.146Z,99525.19
2022-10-06T03:07:50.000Z,99521.53
2022-10-06T03:10:18.514Z,99522.50
2022-10-06T03:12:46.380Z,99520.00
2022-10-06T03:15:14.269Z,99511.94
2022-10-06T03:17:42.174Z,99504.88
2022-10-06T03:20:11.504Z,99510.78
2022-10-06T03:22:39.376Z,99501.88
2022-10-06T03:25:09.004Z,99498.34
2022-10-06T03:27:37.124Z,99502.03
2022-10-06T03:30:08.210Z,99502.88
2022-10-06T03:32:38.166Z,99498.66
2022-10-06T03:35:08.192Z,99494.13
2022-10-06T03:37:37.689Z,99489.59
2022-10-06T03:40:06.718Z,99479.84
2022-10-06T03:42:34.593Z,99490.75
2022-10-06T03:45:02.492Z,99492.47
2022-10-06T03:47:31.813Z,99491.59
2022-10-06T03:49:59.670Z,99489.91
2022-10-06T03:52:27.985Z,99489.41
2022-10-06T03:54:57.393Z,99499.81
2022-10-06T03:57:25.432Z,99497.47
2022-10-06T03:59:53.976Z,99498.28
2022-10-06T04:02:21.977Z,99512.56
2022-10-06T04:04:49.854Z,99526.00
2022-10-06T04:07:18.452Z,99531.38
2022-10-06T04:09:47.162Z,99527.16
2022-10-06T04:12:17.769Z,99537.22
2022-10-06T04:14:45.741Z,99543.44
2022-10-06T04:17:13.659Z,99543.56
2022-10-06T04:19:42.690Z,99553.50
2022-10-06T04:22:10.703Z,99520.75
2022-10-06T04:24:38.545Z,99553.63
2022-10-06T04:27:29.528Z,99552.78
2022-10-06T04:30:09.694Z,99562.00
2022-10-06T04:32:37.901Z,99554.25
2022-10-06T04:35:06.276Z,99552.28
2022-10-06T04:37:34.453Z,99548.06
2022-10-06T04:40:03.299Z,99555.94
2022-10-06T04:42:35.255Z,99561.50
2022-10-06T04:45:09.254Z,99555.09
2022-10-06T04:47:38.455Z,99557.97
2022-10-06T04:50:07.234Z,99563.31
2022-10-06T04:52:35.746Z,99563.31
2022-10-06T04:55:03.673Z,99564.19
2022-10-06T04:57:31.877Z,99563.31
2022-10-06T05:00:17.976Z,99572.38
2022-10-06T05:02:49.081Z,99572.38
2022-10-06T05:05:17.261Z,99576.88
2022-10-06T05:07:46.077Z,99583.97
2022-10-06T05:10:14.824Z,99582.13
2022-10-06T05:12:43.097Z,99591.03
2022-10-06T05:15:11.778Z,99593.84
2022-10-06T05:17:39.640Z,99596.53
2022-10-06T05:20:11.662Z,99592.50
2022-10-06T05:22:39.574Z,99611.81
2022-10-06T05:25:08.357Z,99620.88
2022-10-06T05:27:36.281Z,99590.16
2022-10-06T05:30:04.432Z,99617.34
2022-10-06T05:32:35.935Z,99614.66
2022-10-06T05:35:05.056Z,99628.09
2022-10-06T05:37:34.407Z,99620.19
2022-10-06T05:40:02.856Z,99636.44
2022-10-06T05:42:31.117Z,99648.03
2022-10-06T05:45:00.150Z,99649.88
2022-10-06T05:47:28.282Z,99649.03
2022-10-06T05:49:56.176Z,99649.16
2022-10-06T05:52:24.353Z,99658.94
2022-10-06T05:54:54.560Z,99659.75
2022-10-06T05:57:22.628Z,99666.16
2022-10-06T05:59:50.519Z,99669.69
2022-10-06T06:02:18.781Z,99676.88
2022-10-06T06:04:47.557Z,99670.63
2022-10-06T06:07:15.478Z,99669.78
2022-10-06T06:09:46.529Z,99679.56
2022-10-06T06:12:16.183Z,99689.16
2022-10-06T06:15:07.476Z,99689.56
2022-10-06T06:17:53.635Z,99698.38
2022-10-06T06:20:21.637Z,99704.69
2022-10-06T06:22:53.311Z,99711.81
2022-10-06T06:25:23.530Z,99707.53
2022-10-06T06:27:55.355Z,99712.06
2022-10-06T06:30:24.342Z,99715.72
2022-10-06T06:32:52.594Z,99723.78
2022-10-06T06:35:20.485Z,99726.78
2022-10-06T06:37:48.935Z,99741.03
2022-10-06T06:40:17.030Z,99747.25
2022-10-06T06:42:44.977Z,99754.47
2022-10-06T06:45:31.478Z,99759.00
2022-10-06T06:48:15.516Z,99752.81
2022-10-06T06:50:45.851Z,99761.00
2022-10-06T06:53:16.181Z,99761.16
2022-10-06T06:55:51.111Z,99767.22
2022-10-06T06:58:21.302Z,99771.19
2022-10-06T07:00:51.151Z,99767.50
2022-10-06T07:03:45.233Z,99778.25
2022-10-06T07:06:12.632Z,99769.91
2022-10-06T07:08:43.749Z,99775.09
2022-10-06T07:11:14.285Z,99782.19
2022-10-06T07:13:43.524Z,99776.63
2022-10-06T07:16:32.316Z,99782.72
2022-10-06T07:19:21.296Z,99790.41
2022-10-06T07:22:11.988Z,99788.91
2022-10-06T07:24:58.100Z,99810.41
2022-10-06T07:27:26.585Z,99805.78
2022-10-06T07:29:55.273Z,99808.19
2022-10-06T07:32:27.123Z,99819.75
2022-10-06T07:34:55.833Z,99813.22
2022-10-06T07:37:24.136Z,99824.69
2022-10-06T07:39:52.730Z,99834.28
2022-10-06T07:42:21.290Z,99844.72
2022-10-06T07:45:09.752Z,99846.28
2022-10-06T07:47:41.706Z,99854.47
2022-10-06T07:50:12.937Z,99850.63
2022-10-06T07:52:41.233Z,99847.81
2022-10-06T07:55:09.694Z,99853.03
2022-10-06T07:57:46.287Z,99860.94
2022-10-06T08:00:15.723Z,99870.69
2022-10-06T08:02:45.028Z,99876.91
2022-10-06T08:05:12.978Z,99871.38
2022-10-06T08:07:41.629Z,99871.25
2022-10-06T08:10:10.221Z,99890.06
2022-10-06T08:12:40.203Z,99882.28
2022-10-06T08:15:11.477Z,99891.72
2022-10-06T08:17:39.734Z,99893.44
2022-10-06T08:20:11.926Z,99890.44
2022-10-06T08:22:41.288Z,99898.13
2022-10-06T08:25:11.057Z,99893.13
2022-10-06T08:27:40.487Z,99902.88
2022-10-06T08:30:09.458Z,99888.66
2022-10-06T08:32:37.456Z,99908.13
2022-10-06T08:35:05.629Z,99924.25
2022-10-06T08:37:34.899Z,99931.16
2022-10-06T08:40:02.831Z,99936.38
2022-10-06T08:42:42.475Z,99945.28
2022-10-06T08:45:15.689Z,99927.97
2022-10-06T08:47:51.857Z,99961.56
2022-10-06T08:50:22.265Z,99969.75
2022-10-06T08:53:02.317Z,99966.63
2022-10-06T08:55:39.682Z,99968.47
2022-10-06T08:58:29.059Z,99969.19
2022-10-06T09:00:57.476Z,99984.59
2022-10-06T09:03:30.363Z,99990.50
2022-10-06T09:06:09.041Z,99978.63
2022-10-06T09:08:51.010Z,99996.44
2022-10-06T09:11:33.331Z,100004.50
2022-10-06T09:14:05.849Z,99993.91
2022-10-06T09:16:39.016Z,100011.59
2022-10-06T09:19:15.204Z,100013.44
2022-10-06T09:21:46.852Z,100019.66
2022-10-06T09:24:21.224Z,100027.41
2022-10-06T09:26:52.317Z,100026.59
2022-10-06T09:29:20.336Z,100034.66
2022-10-06T09:31:50.553Z,100031.09
2022-10-06T09:34:25.803Z,100040.84
2022-10-06T09:37:05.018Z,100052.31
2022-10-06T09:39:37.297Z,100039.56
2022-10-06T09:42:12.521Z,100037.88
2022-10-06T09:44:48.251Z,100044.38
2022-10-06T09:47:35.760Z,100045.91
2022-10-06T09:50:12.609Z,100054.28
2022-10-06T09:52:42.282Z,100061.31
2022-10-06T09:55:13.995Z,100055.94
2022-10-06T09:57:49.947Z,100072.06
2022-10-06T10:00:28.161Z,100079.31
2022-10-06T10:03:00.663Z,100078.59
2022-10-06T10:05:30.812Z,100076.19
2022-10-06T10:08:03.021Z,100080.59
2022-10-06T10:10:34.472Z,100089.63
2022-10-06T10:13:02.385Z,100097.00
2022-10-06T10:15:33.865Z,100102.38
2022-10-06T10:18:04.182Z,100105.22
2022-10-06T10:20:38.284Z,100115.13
2022-10-06T10:23:28.594Z,100114.41
2022-10-06T10:26:14.577Z,100110.88
2022-10-06T10:29:00.431Z,100115.56
2022-10-06T10:31:33.597Z,100113.00
2022-10-06T10:34:23.540Z,100115.69
2022-10-06T10:36:55.652Z,100110.59
2022-10-06T10:39:33.087Z,100118.66
2022-10-06T10:42:05.452Z,100119.66
2022-10-06T10:44:36.006Z,100127.84
2022-10-06T10:47:14.500Z,100135.09
2022-10-06T10:49:46.539Z,100144.84
2022-10-06T10:52:18.814Z,100150.22
2022-10-06T10:54:53.323Z,100161.56
2022-10-06T10:57:29.072Z,100162.09
2022-10-06T11:00:02.232Z,100166.63
2022-10-06T11:02:31.188Z,100170.44
2022-10-06T11:05:03.945Z,100173.97
2022-10-06T11:07:39.143Z,100175.97
2022-10-06T11:10:13.491Z,100185.75
2022-10-06T11:13:02.136Z,100182.31
2022-10-06T11:15:45.377Z,100191.25
2022-10-06T11:18:26.161Z,100177.97
2022-10-06T11:21:01.031Z,100189.56
2022-10-06T11:23:45.285Z,100193.22
2022-10-06T11:26:26.997Z,100183.34
2022-10-06T11:29:02.164Z,100177.97
2022-10-06T11:31:37.015Z,100179.78
2022-10-06T11:34:06.513Z,100198.59
2022-10-06T11:36:43.365Z,100198.44
2022-10-06T11:39:24.552Z,100193.50
2022-10-06T11:41:58.952Z,100202.41
2022-10-06T11:44:37.662Z,100201.56
2022-10-06T11:47:09.400Z,100218.81
2022-10-06T11:49:48.261Z,100233.09
2022-10-06T11:52:56.367Z,100244.72
2022-10-06T11:55:28.958Z,100220.66
2022-10-06T11:58:40.843Z,100242.28
2022-10-06T12:01:07.326Z,100236.94
2022-10-06T12:04:14.413Z,100261.38
2022-10-06T12:07:04.106Z,100246.81
2022-10-06T12:09:51.962Z,100238.75
2022-10-06T12:12:44.714Z,100240.31
2022-10-06T12:18:46.439Z,100257.00
2022-10-06T12:21:32.017Z,100279.22
2022-10-06T12:24:06.420Z,100243.56
2022-10-06T12:26:49.385Z,100266.19
2022-10-06T12:29:33.722Z,100277.69
2022-10-06T12:32:13.059Z,100267.75
2022-10-06T12:34:58.478Z,100285.44
2022-10-06T12:37:47.968Z,100273.84
2022-10-06T12:40:47.877Z,100275.53
2022-10-06T12:43:35.080Z,100278.09
2022-10-06T12:46:08.131Z,100286.00
2022-10-06T12:48:41.495Z,100280.78
2022-10-06T12:51:23.676Z,100284.31
2022-10-06T12:53:58.434Z,100284.47
2022-10-06T12:56:32.250Z,100290.53
2022-10-06T12:59:19.821Z,100290.81
2022-10-06T13:01:48.808Z,100291.53
2022-10-06T13:04:41.152Z,100305.81
2022-10-06T13:07:19.179Z,100291.38
2022-10-06T13:09:50.009Z,100290.81
2022-10-06T13:12:39.160Z,100295.78
2022-10-06T13:15:11.673Z,100280.47
2022-10-06T13:17:42.333Z,100292.25
2022-10-06T13:20:20.640Z,100287.56
2022-10-06T13:22:58.711Z,100300.03
2022-10-06T13:25:28.762Z,100312.47
2022-10-06T13:27:56.699Z,100303.25
2022-10-06T13:30:25.085Z,100298.75
2022-10-06T13:32:54.468Z,100317.56
2022-10-06T13:35:25.477Z,100315.56
2022-10-06T13:37:55.395Z,100325.34
2022-10-06T13:40:44.111Z,100309.50
2022-10-06T13:43:18.351Z,100341.31
2022-10-06T13:45:49.385Z,100337.81
2022-10-06T13:48:22.009Z,100338.63
2022-10-06T13:50:53.067Z,100329.88
2022-10-06T13:53:27.353Z,100348.56
2022-10-06T13:55:56.830Z,100346.88
2022-10-06T13:58:28.309Z,100347.72
2022-10-06T14:01:00.578Z,100378.00
2022-10-06T14:03:33.854Z,100342.75
2022-10-06T14:06:15.022Z,100348.13
2022-10-06T14:08:47.083Z,100318.00
2022-10-06T14:11:24.185Z,100344.78
2022-10-06T14:13:56.261Z,100351.13
2022-10-06T14:16:26.345Z,100339.41
2022-10-06T14:18:56.707Z,100332.19
2022-10-06T14:21:35.622Z,100343.50
2022-10-06T14:24:07.602Z,100343.66
2022-10-06T14:26:39.825Z,100348.88
2022-10-06T14:29:07.740Z,100335.41
2022-10-06T14:31:35.754Z,100342.34
2022-10-06T14:34:05.252Z,100363.75
2022-10-06T14:36:35.478Z,100370.97
2022-10-06T14:39:05.502Z,100370.81
2022-10-06T14:41:33.944Z,100368.97
2022-10-06T14:44:06.300Z,100370.69
2022-10-06T14:46:34.916Z,100380.00
2022-10-06T14:49:05.997Z,100380.31
2022-10-06T14:51:36.555Z,100389.34
2022-10-06T14:54:06.087Z,100403.53
2022-10-06T14:56:36.311Z,100416.25
2022-10-06T14:59:07.473Z,100407.22
2022-10-06T15:01:37.133Z,100420.66
2022-10-06T15:04:07.493Z,100436.78
2022-10-06T15:06:52.721Z,100434.22
2022-10-06T15:09:20.596Z,100442.59
2022-10-06T15:11:48.752Z,100448.81
2022-10-06T15:14:17.984Z,100446.13
2022-10-06T15:16:45.948Z,100464.13
2022-10-06T15:19:14.326Z,100462.25
2022-10-06T15:21:45.397Z,100478.38
2022-10-06T15:24:15.677Z,100480.25
2022-10-06T15:27:01.402Z,100470.63
2022-10-06T15:29:30.986Z,100470.91
2022-10-06T15:32:00.285Z,100468.00
2022-10-06T15:34:30.329Z,100461.38
2022-10-06T15:36:59.203Z,100475.97
2022-10-06T15:39:29.458Z,100475.22
2022-10-06T15:41:57.722Z,100487.09
2022-10-06T15:44:25.951Z,100491.47
2022-10-06T15:46:56.491Z,100508.03
2022-10-06T15:49:26.000Z,100497.69
2022-10-06T15:51:56.799Z,100503.78
2022-10-06T15:54:26.877Z,100506.75
2022-10-06T15:56:56.072Z,100522.03
2022-10-06T15:59:25.523Z,100527.69
2022-10-06T16:01:57.343Z,100535.88
2022-10-06T16:04:33.091Z,100513.75
2022-10-06T16:07:01.796Z,100536.28
2022-10-06T16:09:31.749Z,100533.59
2022-10-06T16:12:02.627Z,100531.06
2022-10-06T16:14:31.118Z,100541.09
2022-10-06T16:17:01.610Z,100550.13
2022-10-06T16:19:30.773Z,100553.09
2022-10-06T16:21:59.355Z,100554.91
2022-10-06T16:24:28.065Z,100554.19
2022-10-06T16:26:58.031Z,100546.81
2022-10-06T16:29:25.989Z,100564.34
2022-10-06T16:31:54.265Z,100545.84
2022-10-06T16:34:25.378Z,100565.47
2022-10-06T16:36:53.505Z,100561.22
2022-10-06T16:39:23.280Z,100576.53
2022-10-06T16:41:52.266Z,100557.63
2022-10-06T16:44:20.141Z,100593.88
2022-10-06T16:46:48.092Z,100574.34
2022-10-06T16:49:16.021Z,100587.06
2022-10-06T16:51:46.800Z,100568.06
2022-10-06T16:54:17.081Z,100581.97
2022-10-06T16:56:47.273Z,100588.31
2022-10-06T16:59:16.869Z,100597.38
2022-10-06T17:01:45.656Z,100602.84
2022-10-06T17:04:15.382Z,100603.84
2022-10-06T17:06:46.874Z,100611.31
2022-10-06T17:09:16.858Z,100606.06
2022-10-06T17:11:46.675Z,100606.06
2022-10-06T17:14:14.929Z,100600.97
2022-10-06T17:16:44.992Z,100611.72
2022-10-06T17:19:13.773Z,100612.84
2022-10-06T17:21:47.118Z,100609.28
2022-10-06T17:24:18.710Z,100613.94
2022-10-06T17:26:48.212Z,100608.81
2022-10-06T17:29:18.751Z,100610.63
2022-10-06T17:31:47.564Z,100616.97
2022-10-06T17:34:20.802Z,100628.72
2022-10-06T17:36:51.335Z,100620.75
2022-10-06T17:39:22.535Z,100618.94
2022-10-06T17:41:52.613Z,100624.56
2022-10-06T17:44:22.932Z,100590.34
2022-10-06T17:46:53.307Z,100627.38
2022-10-06T17:49:22.630Z,100613.75
2022-10-06T17:51:51.862Z,100620.31
2022-10-06T17:54:23.435Z,100627.50
2022-10-06T17:56:54.206Z,100614.97
2022-10-06T17:59:24.057Z,100627.50
2022-10-06T18:01:52.897Z,100630.19
2022-10-06T18:04:20.974Z,100638.38
2022-10-06T18:06:49.161Z,100642.03
2022-10-06T18:09:18.353Z,100637.53
2022-10-06T18:11:48.404Z,100602.34
2022-10-06T18:14:18.181Z,100640.34
2022-10-06T18:16:53.469Z,100634.25
2022-10-06T18:19:24.302Z,100637.91
2022-10-06T18:21:52.349Z,100583.19
2022-10-06T18:24:22.729Z,100622.78
2022-10-06T18:26:54.259Z,100629.97
2022-10-06T18:29:24.309Z,100616.69
2022-10-06T18:31:54.397Z,100546.84
2022-10-06T18:37:10.559Z,100646.38
2022-10-06T18:39:38.455Z,100656.09
2022-10-06T18:42:08.360Z,100653.41
2022-10-06T18:44:54.293Z,100663.19
2022-10-06T18:47:39.773Z,100661.63
2022-10-06T18:50:08.459Z,100662.47
2022-10-06T18:52:36.476Z,100676.88
2022-10-06T18:55:04.521Z,100668.97
2022-10-06T18:57:33.781Z,100666.28
2022-10-06T19:00:01.754Z,100667.25
2022-10-06T19:02:29.900Z,100657.59
2022-10-06T19:04:57.884Z,100678.94
2022-10-06T19:07:32.345Z,100674.44
2022-10-06T19:10:01.395Z,100679.94
2022-10-06T19:12:29.837Z,100685.31
2022-10-06T19:14:59.343Z,100682.63
2022-10-06T19:17:27.954Z,100678.22
2022-10-06T19:19:57.100Z,100674.81
2022-10-06T19:22:25.691Z,100681.06
2022-10-06T19:24:53.900Z,100660.56
2022-10-06T19:27:25.568Z,100699.00
2022-10-06T19:29:56.893Z,100678.47
2022-10-06T19:32:29.095Z,100686.41
2022-10-06T19:34:58.803Z,100678.47
2022-10-06T19:37:28.001Z,100701.66
2022-10-06T19:39:56.392Z,100695.59
2022-10-06T19:42:41.890Z,100695.59
2022-10-06T19:45:11.929Z,100697.66
2022-10-06T19:47:42.413Z,100718.88
2022-10-06T19:50:12.031Z,100729.63
2022-10-06T19:52:40.935Z,100725.38
2022-10-06T19:55:09.150Z,100713.63
2022-10-06T19:57:37.166Z,100726.22
2022-10-06T20:00:06.793Z,100728.91
2022-10-06T20:02:43.933Z,100734.28
2022-10-06T20:05:13.025Z,100728.91
2022-10-06T20:07:41.346Z,100742.31
2022-10-06T20:10:09.773Z,100749.53
2022-10-06T20:12:38.427Z,100746.84
2022-10-06T20:15:07.338Z,100748.66
2022-10-06T20:17:35.778Z,100749.63
2022-10-06T20:20:05.538Z,100750.47
2022-10-06T20:22:33.508Z,100746.22
2022-10-06T20:25:02.493Z,100748.03
2022-10-06T20:27:30.419Z,100725.75
2022-10-06T20:29:58.374Z,100740.28
2022-10-06T20:32:26.316Z,100754.28
2022-10-06T20:34:54.332Z,100746.34
2022-10-06T20:37:23.572Z,100742.69
2022-10-06T20:40:08.849Z,100749.16
2022-10-06T20:42:36.753Z,100761.75
2022-10-06T20:45:05.024Z,100765.25
2022-10-06T20:47:32.953Z,100765.25
2022-10-06T20:50:00.891Z,100766.13
2022-10-06T20:52:31.692Z,100760.75
2022-10-06T20:54:59.596Z,100761.00
2022-10-06T20:57:33.518Z,100757.47
2022-10-06T21:00:01.810Z,100761.00
2022-10-06T21:02:31.454Z,100774.31
2022-10-06T21:04:59.878Z,100765.41
2022-10-06T21:07:27.723Z,100774.31
2022-10-06T21:09:56.970Z,100774.31
2022-10-06T21:12:24.835Z,100767.22
2022-10-06T21:14:52.708Z,100760.16
2022-10-06T21:17:20.615Z,100772.59
2022-10-06T21:19:48.483Z,100777.09
2022-10-06T21:22:16.359Z,100784.31
2022-10-06T21:24:44.482Z,100785.16
2022-10-06T21:27:14.038Z,100778.44
2022-10-06T21:29:41.902Z,100781.63
2022-10-06T21:32:10.390Z,100776.38
2022-10-06T21:34:40.184Z,100786.16
2022-10-06T21:37:08.115Z,100781.00
2022-10-06T21:39:35.999Z,100787.09
2022-10-06T21:42:04.123Z,100801.25
2022-10-06T21:44:33.462Z,100789.41
2022-10-06T21:47:02.612Z,100773.81
2022-10-06T21:49:30.663Z,100798.34
2022-10-06T21:52:03.544Z,100789.41
2022-10-06T21:54:31.763Z,100796.50
2022-10-06T21:56:59.691Z,100799.06
2022-10-06T21:59:27.580Z,100799.06
2022-10-06T22:01:57.010Z,100787.59
2022-10-06T22:04:24.975Z,100795.66
2022-10-06T22:06:52.910Z,100797.22
2022-10-06T22:09:21.372Z,100800.78
2022-10-06T22:11:49.520Z,100795.41
2022-10-06T22:14:19.302Z,100801.50
2022-10-06T22:16:47.366Z,100787.84
2022-10-06T22:19:17.924Z,100811.38
2022-10-06T22:21:47.667Z,100805.19
2022-10-06T22:24:18.279Z,100801.25
2022-10-06T22:26:46.981Z,100814.19
2022-10-06T22:29:16.644Z,100818.59
2022-10-06T22:31:46.171Z,100823.84
2022-10-06T22:34:17.685Z,100824.78
2022-10-06T22:36:45.695Z,100824.78
2022-10-06T22:39:13.594Z,100823.97
2022-10-06T22:41:41.615Z,100819.44
2022-10-06T22:44:09.546Z,100822.25
2022-10-06T22:46:38.515Z,100818.72
2022-10-06T22:49:07.084Z,100824.78
2022-10-06T22:51:36.856Z,100832.84
2022-10-06T22:54:05.244Z,100828.34
2022-10-06T22:56:33.911Z,100835.44
2022-10-06T22:59:02.416Z,100848.00
2022-10-06T23:01:31.026Z,100841.78
2022-10-06T23:03:59.415Z,100822.88
2022-10-06T23:06:29.757Z,100840.81
2022-10-06T23:08:59.143Z,100838.84
2022-10-06T23:11:27.035Z,100831.75
2022-10-06T23:13:55.000Z,100831.75
2022-10-06T23:16:23.574Z,100832.63
2022-10-06T23:18:51.837Z,100830.78
2022-10-06T23:21:22.641Z,100826.38
2022-10-06T23:23:52.985Z,100822.72
2022-10-06T23:26:23.518Z,100833.47
2022-10-06T23:28:53.099Z,100828.09
2022-10-06T23:31:21.239Z,100827.47
2022-10-06T23:33:49.262Z,100848.97
2022-10-06T23:36:17.781Z,100840.91
2022-10-06T23:38:46.012Z,100845.44
2022-10-06T23:41:14.524Z,100852.50
2022-10-06T23:43:43.787Z,100853.50
2022-10-06T23:46:12.198Z,100850.81
2022-10-06T23:48:40.490Z,100877.75
2022-10-06T23:51:09.761Z,100871.53
2022-10-06T23:53:38.145Z,100839.94
2022-10-06T23:56:06.820Z,100871.53
2022-10-06T23:58:34.904Z,100868.03
